Terminal Aerodrome Forecast
Issued by NWS

Home | Current Version | Previous Version | Text Only | Print | Product List | Glossary On
Versions: 1 2 3 4 5 6 7 8 9 10 11 12 13 14 15 16 17 18 19
000
FTAK31 PANC 300524
TAFADL
TAF
PADL 300524Z 3006/3106 23010KT P6SM -SHRA BKN070
     FM301100 22004KT 2SM BR VCFG BKN003
     FM301600 18009KT P6SM SCT005 BKN010
     FM302100 12012G20KT P6SM -SHRA SCT015 OVC025
     FM310530 09010G17KT P6SM -SHRA SCT015 OVC025=

USA.gov is the U.S. government's official web portal to all federal, state and local government web resources and services.